Time,TemperatureF,DewpointF,PressureIn,WindDirection,WindDirectionDegrees,WindSpeedMPH,WindSpeedGustMPH,Humidity,HourlyPrecipIn,Conditions,Clouds,dailyrainin,SoftwareType,DateUTC
2013-04-12 00:05:00,30.9,17.4,29.89,North,5,6.0,6.0,57,0.00,,,0.00,Wunderground v.1.15,2013-04-12 04:05:00,
2013-04-12 00:16:00,30.8,17.7,29.89,NNE,19,5.0,5.0,58,0.00,,,0.00,Wunderground v.1.15,2013-04-12 04:16:00,
2013-04-12 00:25:00,30.7,17.3,29.89,NNE,20,6.0,6.0,57,0.00,,,0.00,Wunderground v.1.15,2013-04-12 04:25:00,
2013-04-12 00:30:00,30.6,17.6,29.88,NNE,26,6.0,6.0,58,0.00,,,0.00,Wunderground v.1.15,2013-04-12 04:30:00,
2013-04-12 00:40:00,30.5,17.1,29.88,NNE,31,6.0,9.0,57,0.00,,,0.00,Wunderground v.1.15,2013-04-12 04:40:00,
2013-04-12 00:45:00,30.5,17.1,29.87,NE,38,6.0,9.0,57,0.00,,,0.00,Wunderground v.1.15,2013-04-12 04:45:00,
2013-04-12 00:55:00,30.3,16.9,29.87,NE,44,6.0,6.0,57,0.00,,,0.00,Wunderground v.1.15,2013-04-12 04:55:00,
2013-04-12 01:05:00,30.2,17.2,29.87,NE,55,3.0,3.0,58,0.00,,,0.00,Wunderground v.1.15,2013-04-12 05:05:00,
2013-04-12 01:15:00,30.1,17.1,29.88,NE,46,3.0,3.0,58,0.00,,,0.00,Wunderground v.1.15,2013-04-12 05:15:00,
2013-04-12 01:20:00,30.2,17.2,29.89,North,355,3.0,3.0,58,0.00,,,0.00,Wunderground v.1.15,2013-04-12 05:20:00,
2013-04-12 01:35:00,30.2,17.2,29.88,NE,35,4.0,4.0,58,0.00,,,0.00,Wunderground v.1.15,2013-04-12 05:35:00,
2013-04-12 01:45:00,30.1,17.5,29.87,NNE,32,3.0,4.0,59,0.00,,,0.00,Wunderground v.1.15,2013-04-12 05:45:00,
2013-04-12 01:50:00,30.1,17.5,29.87,NNE,29,3.0,4.0,59,0.00,,,0.00,Wunderground v.1.15,2013-04-12 05:50:00,
2013-04-12 02:05:00,30.0,17.0,29.86,NE,35,4.0,5.0,58,0.00,,,0.00,Wunderground v.1.15,2013-04-12 06:05:00,
2013-04-12 02:20:00,29.9,16.9,29.86,North,11,3.0,3.0,58,0.00,,,0.00,Wunderground v.1.15,2013-04-12 06:20:00,
2013-04-12 02:30:00,30.0,17.4,29.86,NE,42,3.0,3.0,59,0.00,,,0.00,Wunderground v.1.15,2013-04-12 06:30:00,
2013-04-12 02:35:00,30.0,17.0,29.86,NNE,27,3.0,3.0,58,0.00,,,0.00,Wunderground v.1.15,2013-04-12 06:35:00,
2013-04-12 02:50:00,30.1,17.5,29.86,NNE,22,2.0,2.0,59,0.00,,,0.00,Wunderground v.1.15,2013-04-12 06:50:00,
2013-04-12 02:55:00,30.0,17.4,29.86,NNE,24,2.0,2.0,59,0.00,,,0.00,Wunderground v.1.15,2013-04-12 06:55:00,
2013-04-12 03:15:00,30.0,18.2,29.85,NNE,31,2.0,3.0,61,0.00,,,0.00,Wunderground v.1.15,2013-04-12 07:15:00,
2013-04-12 03:25:00,30.0,17.0,29.85,NNE,26,2.0,3.0,58,0.00,,,0.00,Wunderground v.1.15,2013-04-12 07:25:00,
2013-04-12 03:30:00,30.1,17.9,29.85,NNE,28,2.0,3.0,60,0.00,,,0.00,Wunderground v.1.15,2013-04-12 07:30:00,
2013-04-12 03:36:00,30.1,17.1,29.85,NNE,24,2.0,3.0,58,0.00,,,0.00,Wunderground v.1.15,2013-04-12 07:36:00,
2013-04-12 03:45:00,30.1,17.1,29.85,NNE,13,2.0,3.0,58,0.00,,,0.00,Wunderground v.1.15,2013-04-12 07:45:00,
2013-04-12 03:50:00,30.1,16.7,29.85,NNE,20,2.0,3.0,57,0.00,,,0.00,Wunderground v.1.15,2013-04-12 07:50:00,
2013-04-12 03:56:00,30.1,17.5,29.86,NNW,347,2.0,2.0,59,0.00,,,0.00,Wunderground v.1.15,2013-04-12 07:56:00,
2013-04-12 04:05:00,30.2,17.6,29.86,NNE,19,2.0,5.0,59,0.00,,,0.00,Wunderground v.1.15,2013-04-12 08:05:00,
2013-04-12 04:11:00,30.1,17.1,29.87,NNE,22,2.0,5.0,58,0.00,,,0.00,Wunderground v.1.15,2013-04-12 08:11:00,
2013-04-12 04:20:00,30.2,17.6,29.87,NNE,33,2.0,2.0,59,0.00,,,0.00,Wunderground v.1.15,2013-04-12 08:20:00,
2013-04-12 04:25:00,30.2,18.0,29.87,NNE,17,2.0,2.0,60,0.00,,,0.00,Wunderground v.1.15,2013-04-12 08:25:00,
2013-04-12 04:31:00,30.1,18.3,29.87,NNE,21,2.0,4.0,61,0.00,,,0.00,Wunderground v.1.15,2013-04-12 08:31:00,
2013-04-12 04:41:00,29.8,18.4,29.87,NNE,26,3.0,4.0,62,0.00,,,0.00,Wunderground v.1.15,2013-04-12 08:41:00,
2013-04-12 05:00:00,29.6,18.5,29.87,NNE,24,0.0,0.0,63,0.00,,,0.00,Wunderground v.1.15,2013-04-12 09:00:00,
2013-04-12 05:05:00,29.6,19.3,29.87,NNE,25,0.0,0.0,65,0.00,,,0.00,Wunderground v.1.15,2013-04-12 09:05:00,
2013-04-12 05:15:00,29.5,19.9,29.87,NNE,24,0.0,0.0,67,0.00,,,0.00,Wunderground v.1.15,2013-04-12 09:15:00,
2013-04-12 05:26:00,29.3,19.3,29.87,NNE,24,0.0,0.0,66,0.00,,,0.00,Wunderground v.1.15,2013-04-12 09:26:00,
2013-04-12 05:35:00,29.2,20.3,29.87,NNE,24,0.0,0.0,69,0.00,,,0.00,Wunderground v.1.15,2013-04-12 09:35:00,
2013-04-12 05:50:00,29.1,21.2,29.87,NNE,25,0.0,0.0,72,0.00,,,0.00,Wunderground v.1.15,2013-04-12 09:50:00,
2013-04-12 05:55:00,29.0,21.4,29.87,NNE,25,0.0,0.0,73,0.00,,,0.00,Wunderground v.1.15,2013-04-12 09:55:00,
2013-04-12 06:05:00,28.8,21.9,29.87,NNE,25,0.0,0.0,75,0.00,,,0.00,Wunderground v.1.15,2013-04-12 10:05:00,
2013-04-12 06:15:00,28.7,23.0,29.86,ENE,71,1.0,1.0,79,0.00,,,0.00,Wunderground v.1.15,2013-04-12 10:15:00,
2013-04-12 06:25:00,28.4,23.3,29.86,ESE,103,1.0,1.0,81,0.00,,,0.00,Wunderground v.1.15,2013-04-12 10:25:00,
2013-04-12 06:35:00,28.3,23.5,29.86,ESE,103,1.0,1.0,82,0.00,,,0.00,Wunderground v.1.15,2013-04-12 10:35:00,
2013-04-12 06:50:00,28.2,24.0,29.86,East,82,2.0,2.0,84,0.00,,,0.00,Wunderground v.1.15,2013-04-12 10:50:00,
2013-04-12 06:55:00,28.1,24.2,29.86,ENE,65,2.0,2.0,85,0.00,,,0.00,Wunderground v.1.15,2013-04-12 10:55:00,
2013-04-12 07:10:00,27.9,24.5,29.85,ENE,71,2.0,3.0,87,0.00,,,0.00,Wunderground v.1.15,2013-04-12 11:10:00,
2013-04-12 07:15:00,27.9,24.5,29.85,East,85,3.0,3.0,87,0.00,,,0.00,Wunderground v.1.15,2013-04-12 11:15:00,
2013-04-12 07:30:00,28.0,24.6,29.85,East,101,3.0,3.0,87,0.00,,,0.00,Wunderground v.1.15,2013-04-12 11:30:00,
2013-04-12 07:45:00,28.1,25.0,29.85,East,100,3.0,3.0,88,0.00,,,0.00,Wunderground v.1.15,2013-04-12 11:45:00,
2013-04-12 07:55:00,28.3,25.5,29.85,ESE,105,2.0,3.0,89,0.00,,,0.00,Wunderground v.1.15,2013-04-12 11:55:00,
2013-04-12 08:06:00,28.4,25.8,29.84,ESE,103,4.0,7.0,90,0.00,,,0.00,Wunderground v.1.15,2013-04-12 12:06:00,
2013-04-12 08:16:00,28.5,26.2,29.83,East,101,4.0,6.0,91,0.00,,,0.00,Wunderground v.1.15,2013-04-12 12:16:00,
2013-04-12 08:25:00,28.5,26.2,29.83,ENE,69,5.0,5.0,91,0.00,,,0.00,Wunderground v.1.15,2013-04-12 12:25:00,
2013-04-12 08:30:00,28.4,26.1,29.83,East,101,4.0,5.0,91,0.00,,,0.00,Wunderground v.1.15,2013-04-12 12:30:00,
2013-04-12 08:40:00,28.3,26.0,29.81,ESE,103,5.0,5.0,91,0.00,,,0.00,Wunderground v.1.15,2013-04-12 12:40:00,
2013-04-12 08:45:00,28.3,26.0,29.81,ESE,107,5.0,5.0,91,0.00,,,0.00,Wunderground v.1.15,2013-04-12 12:45:00,
2013-04-12 08:50:00,28.2,25.9,29.81,ENE,65,4.0,4.0,91,0.00,,,0.00,Wunderground v.1.15,2013-04-12 12:50:00,
2013-04-12 09:00:00,28.1,25.8,29.80,ESE,108,5.0,5.0,91,0.00,,,0.00,Wunderground v.1.15,2013-04-12 13:00:00,
2013-04-12 09:15:00,28.1,26.1,29.80,ESE,103,4.0,4.0,92,0.00,,,0.00,Wunderground v.1.15,2013-04-12 13:15:00,
2013-04-12 09:20:00,28.2,26.2,29.80,East,91,3.0,4.0,92,0.00,,,0.00,Wunderground v.1.15,2013-04-12 13:20:00,
2013-04-12 09:35:00,28.2,26.2,29.78,ESE,108,3.0,3.0,92,0.00,,,0.00,Wunderground v.1.15,2013-04-12 13:35:00,
2013-04-12 09:45:00,28.3,26.5,29.78,ENE,76,2.0,2.0,93,0.00,,,0.00,Wunderground v.1.15,2013-04-12 13:45:00,
2013-04-12 09:50:00,28.3,26.5,29.78,East,101,3.0,3.0,93,0.00,,,0.00,Wunderground v.1.15,2013-04-12 13:50:00,
2013-04-12 10:10:00,28.4,26.6,29.78,ESE,115,2.0,7.0,93,0.00,,,0.00,Wunderground v.1.15,2013-04-12 14:10:00,
2013-04-12 10:15:00,28.4,26.6,29.77,East,93,2.0,2.0,93,0.00,,,0.00,Wunderground v.1.15,2013-04-12 14:15:00,
2013-04-12 10:30:00,28.5,27.0,29.75,ENE,70,4.0,4.0,94,0.00,,,0.00,Wunderground v.1.15,2013-04-12 14:30:00,
2013-04-12 10:40:00,28.5,27.0,29.75,ENE,76,3.0,3.0,94,0.00,,,0.00,Wunderground v.1.15,2013-04-12 14:40:00,
2013-04-12 10:45:00,28.7,27.2,29.74,ESE,107,3.0,5.0,94,0.00,,,0.00,Wunderground v.1.15,2013-04-12 14:45:00,
2013-04-12 10:50:00,28.6,27.1,29.74,ENE,70,4.0,4.0,94,0.00,,,0.00,Wunderground v.1.15,2013-04-12 14:50:00,
2013-04-12 10:55:00,28.7,27.2,29.73,ENE,62,4.0,4.0,94,0.00,,,0.00,Wunderground v.1.15,2013-04-12 14:55:00,
2013-04-12 11:05:00,28.6,27.1,29.73,East,100,2.0,2.0,94,0.00,,,0.00,Wunderground v.1.15,2013-04-12 15:05:00,
2013-04-12 11:15:00,28.7,27.2,29.72,ESE,105,1.0,2.0,94,0.00,,,0.00,Wunderground v.1.15,2013-04-12 15:15:00,
2013-04-12 11:25:00,28.8,27.0,29.72,SE,142,2.0,2.0,93,0.00,,,0.00,Wunderground v.1.15,2013-04-12 15:25:00,
2013-04-12 11:40:00,29.0,27.2,29.71,SSE,162,0.0,2.0,93,0.00,,,0.00,Wunderground v.1.15,2013-04-12 15:40:00,
2013-04-12 11:46:00,29.1,27.3,29.72,South,179,1.0,3.0,93,0.00,,,0.00,Wunderground v.1.15,2013-04-12 15:46:00,
2013-04-12 12:05:00,29.2,26.6,29.73,South,184,3.0,3.0,90,0.00,,,0.00,Wunderground v.1.15,2013-04-12 16:05:00,
2013-04-12 12:15:00,29.3,26.5,29.70,SE,130,2.0,3.0,89,0.00,,,0.00,Wunderground v.1.15,2013-04-12 16:15:00,
2013-04-12 12:21:00,29.3,26.5,29.69,SSW,194,3.0,4.0,89,0.00,,,0.00,Wunderground v.1.15,2013-04-12 16:21:00,
2013-04-12 12:30:00,29.0,26.2,29.69,SSW,192,5.0,6.0,89,0.00,,,0.00,Wunderground v.1.15,2013-04-12 16:30:00,
2013-04-12 12:35:00,28.9,26.3,29.69,SSW,192,5.0,7.0,90,0.00,,,0.00,Wunderground v.1.15,2013-04-12 16:35:00,
2013-04-12 12:45:00,29.1,27.1,29.69,SSE,148,5.0,5.0,92,0.00,,,0.00,Wunderground v.1.15,2013-04-12 16:45:00,
2013-04-12 12:50:00,29.1,27.1,29.68,SSE,167,3.0,5.0,92,0.00,,,0.00,Wunderground v.1.15,2013-04-12 16:50:00,
2013-04-12 13:00:00,29.3,27.3,29.67,SSE,167,4.0,5.0,92,0.00,,,0.00,Wunderground v.1.15,2013-04-12 17:00:00,
2013-04-12 13:05:00,29.1,27.1,29.66,SSE,162,5.0,5.0,92,0.00,,,0.00,Wunderground v.1.15,2013-04-12 17:05:00,
2013-04-12 13:10:00,29.0,27.0,29.65,SE,136,4.0,6.0,92,0.00,,,0.00,Wunderground v.1.15,2013-04-12 17:10:00,
2013-04-12 13:25:00,29.3,27.3,29.66,South,169,5.0,5.0,92,0.00,,,0.00,Wunderground v.1.15,2013-04-12 17:25:00,
2013-04-12 13:35:00,29.4,27.4,29.64,SE,138,4.0,4.0,92,0.00,,,0.00,Wunderground v.1.15,2013-04-12 17:35:00,
2013-04-12 13:50:00,29.5,27.7,29.64,South,173,3.0,3.0,93,0.00,,,0.00,Wunderground v.1.15,2013-04-12 17:50:00,
2013-04-12 14:00:00,29.3,27.3,29.66,SW,232,4.0,7.0,92,0.00,,,0.00,Wunderground v.1.15,2013-04-12 18:00:00,
2013-04-12 14:10:00,28.9,26.9,29.66,WSW,258,5.0,5.0,92,0.00,,,0.00,Wunderground v.1.15,2013-04-12 18:10:00,
2013-04-12 14:15:00,28.9,26.9,29.66,South,171,5.0,5.0,92,0.00,,,0.00,Wunderground v.1.15,2013-04-12 18:15:00,
2013-04-12 14:20:00,28.9,27.1,29.66,South,180,4.0,4.0,93,0.00,,,0.00,Wunderground v.1.15,2013-04-12 18:20:00,
2013-04-12 14:25:00,28.9,27.1,29.66,SSW,198,5.0,5.0,93,0.00,,,0.00,Wunderground v.1.15,2013-04-12 18:25:00,
2013-04-12 15:30:00,29.2,27.4,29.64,SSE,165,5.0,5.0,93,0.00,,,0.00,Wunderground v.1.15,2013-04-12 19:30:00,
2013-04-12 15:35:00,29.2,27.4,29.63,South,175,5.0,5.0,93,0.00,,,0.00,Wunderground v.1.15,2013-04-12 19:35:00,
2013-04-12 15:40:00,29.3,27.5,29.63,South,169,4.0,5.0,93,0.00,,,0.00,Wunderground v.1.15,2013-04-12 19:40:00,
2013-04-12 15:45:00,29.3,27.3,29.63,SSE,166,4.0,4.0,92,0.00,,,0.00,Wunderground v.1.15,2013-04-12 19:45:00,
2013-04-12 16:00:00,29.4,27.4,29.62,South,189,2.0,2.0,92,0.00,,,0.00,Wunderground v.1.15,2013-04-12 20:00:00,
2013-04-12 16:05:00,29.4,27.6,29.62,South,175,1.0,2.0,93,0.00,,,0.00,Wunderground v.1.15,2013-04-12 20:05:00,
2013-04-12 16:10:00,29.4,27.6,29.62,SE,140,1.0,2.0,93,0.00,,,0.00,Wunderground v.1.15,2013-04-12 20:10:00,
2013-04-12 16:15:00,29.4,27.6,29.62,South,188,1.0,2.0,93,0.00,,,0.00,Wunderground v.1.15,2013-04-12 20:15:00,
2013-04-12 16:20:00,29.5,27.7,29.61,South,178,1.0,3.0,93,0.00,,,0.00,Wunderground v.1.15,2013-04-12 20:20:00,
2013-04-12 16:40:00,29.3,27.5,29.61,East,99,0.0,0.0,93,0.00,,,0.00,Wunderground v.1.15,2013-04-12 20:40:00,
2013-04-12 16:45:00,29.3,27.5,29.60,ESE,120,1.0,1.0,93,0.00,,,0.00,Wunderground v.1.15,2013-04-12 20:45:00,
2013-04-12 16:50:00,29.4,27.6,29.60,SE,127,1.0,1.0,93,0.00,,,0.00,Wunderground v.1.15,2013-04-12 20:50:00,
2013-04-12 16:55:00,29.4,27.6,29.60,South,184,2.0,2.0,93,0.00,,,0.00,Wunderground v.1.15,2013-04-12 20:55:00,
2013-04-12 17:05:00,29.6,27.8,29.60,SSE,155,2.0,2.0,93,0.00,,,0.00,Wunderground v.1.15,2013-04-12 21:05:00,
2013-04-12 17:15:00,29.7,27.9,29.59,South,169,3.0,6.0,93,0.00,,,0.00,Wunderground v.1.15,2013-04-12 21:15:00,
2013-04-12 17:30:00,29.8,28.0,29.59,South,170,2.0,4.0,93,0.00,,,0.00,Wunderground v.1.15,2013-04-12 21:30:00,
2013-04-12 17:35:00,29.7,27.9,29.59,SSE,159,2.0,4.0,93,0.00,,,0.00,Wunderground v.1.15,2013-04-12 21:35:00,
2013-04-12 17:41:00,29.7,28.2,29.59,SSE,163,3.0,3.0,94,0.00,,,0.00,Wunderground v.1.15,2013-04-12 21:41:00,
2013-04-12 17:50:00,29.8,28.3,29.59,SE,134,1.0,2.0,94,0.00,,,0.00,Wunderground v.1.15,2013-04-12 21:50:00,
2013-04-12 17:55:00,29.8,28.3,29.59,South,184,1.0,2.0,94,0.00,,,0.00,Wunderground v.1.15,2013-04-12 21:55:00,
2013-04-12 18:10:00,29.8,28.3,29.59,SE,138,1.0,1.0,94,0.00,,,0.00,Wunderground v.1.15,2013-04-12 22:10:00,
2013-04-12 18:15:00,29.8,28.3,29.59,SSE,151,1.0,1.0,94,0.00,,,0.00,Wunderground v.1.15,2013-04-12 22:15:00,
2013-04-12 18:25:00,29.9,28.4,29.59,ESE,119,1.0,1.0,94,0.00,,,0.00,Wunderground v.1.15,2013-04-12 22:25:00,
2013-04-12 18:30:00,29.8,28.3,29.59,SSE,164,1.0,1.0,94,0.00,,,0.00,Wunderground v.1.15,2013-04-12 22:30:00,
2013-04-12 18:35:00,29.8,28.3,29.58,SE,144,1.0,1.0,94,0.00,,,0.00,Wunderground v.1.15,2013-04-12 22:35:00,
2013-04-12 18:45:00,29.8,28.3,29.58,South,170,0.0,0.0,94,0.00,,,0.00,Wunderground v.1.15,2013-04-12 22:45:00,
2013-04-12 18:50:00,29.8,28.3,29.58,South,171,0.0,3.0,94,0.00,,,0.00,Wunderground v.1.15,2013-04-12 22:50:00,
2013-04-12 18:55:00,29.8,28.5,29.58,South,179,1.0,1.0,95,0.00,,,0.00,Wunderground v.1.15,2013-04-12 22:55:00,
2013-04-12 19:05:00,29.9,28.6,29.57,South,183,1.0,1.0,95,0.00,,,0.00,Wunderground v.1.15,2013-04-12 23:05:00,
2013-04-12 19:15:00,29.9,28.6,29.57,South,181,0.0,4.0,95,0.00,,,0.00,Wunderground v.1.15,2013-04-12 23:15:00,
2013-04-12 19:25:00,29.9,28.6,29.57,South,184,2.0,2.0,95,0.00,,,0.00,Wunderground v.1.15,2013-04-12 23:25:00,
2013-04-12 19:40:00,29.9,28.6,29.57,South,184,0.0,1.0,95,0.00,,,0.00,Wunderground v.1.15,2013-04-12 23:40:00,
2013-04-12 19:45:00,29.9,28.6,29.57,South,184,1.0,1.0,95,0.00,,,0.00,Wunderground v.1.15,2013-04-12 23:45:00,
2013-04-12 19:50:00,29.9,28.6,29.57,South,184,2.0,2.0,95,0.00,,,0.00,Wunderground v.1.15,2013-04-12 23:50:00,
2013-04-12 20:00:00,29.9,28.6,29.57,SW,217,1.0,1.0,95,0.00,,,0.00,Wunderground v.1.15,2013-04-13 00:00:00,
2013-04-12 20:10:00,29.9,28.6,29.57,SSW,194,1.0,1.0,95,0.00,,,0.00,Wunderground v.1.15,2013-04-13 00:10:00,
2013-04-12 20:15:00,29.9,28.6,29.57,South,186,1.0,1.0,95,0.00,,,0.00,Wunderground v.1.15,2013-04-13 00:15:00,
2013-04-12 20:20:00,30.0,28.7,29.57,South,186,1.0,4.0,95,0.00,,,0.00,Wunderground v.1.15,2013-04-13 00:20:00,
2013-04-12 20:30:00,30.1,28.8,29.57,South,186,3.0,5.0,95,0.00,,,0.00,Wunderground v.1.15,2013-04-13 00:30:00,
2013-04-12 20:40:00,30.1,28.8,29.58,South,172,2.0,3.0,95,0.00,,,0.00,Wunderground v.1.15,2013-04-13 00:40:00,
2013-04-12 20:55:00,30.2,28.9,29.57,South,180,1.0,2.0,95,0.00,,,0.00,Wunderground v.1.15,2013-04-13 00:55:00,
2013-04-12 21:00:00,30.2,28.9,29.57,South,180,0.0,0.0,95,0.00,,,0.00,Wunderground v.1.15,2013-04-13 01:00:00,
2013-04-12 21:10:00,30.3,29.0,29.58,South,180,0.0,0.0,95,0.00,,,0.00,Wunderground v.1.15,2013-04-13 01:10:00,
2013-04-12 21:15:00,30.3,29.0,29.57,South,180,0.0,0.0,95,0.00,,,0.00,Wunderground v.1.15,2013-04-13 01:15:00,
2013-04-12 21:35:00,30.5,29.2,29.57,SSW,195,1.0,1.0,95,0.00,,,0.00,Wunderground v.1.15,2013-04-13 01:35:00,
2013-04-12 21:45:00,30.5,29.2,29.57,South,177,1.0,1.0,95,0.00,,,0.00,Wunderground v.1.15,2013-04-13 01:45:00,
2013-04-12 21:55:00,30.5,29.2,29.57,South,177,1.0,1.0,95,0.00,,,0.00,Wunderground v.1.15,2013-04-13 01:55:00,
2013-04-12 22:15:00,30.6,29.3,29.57,South,177,0.0,0.0,95,0.00,,,0.00,Wunderground v.1.15,2013-04-13 02:15:00,
2013-04-12 22:20:00,30.6,29.3,29.57,South,177,0.0,0.0,95,0.00,,,0.00,Wunderground v.1.15,2013-04-13 02:20:00,
2013-04-12 22:40:00,30.8,29.8,29.56,SSW,196,1.0,2.0,96,0.00,,,0.00,Wunderground v.1.15,2013-04-13 02:40:00,
2013-04-12 22:55:00,31.0,30.0,29.56,South,178,1.0,1.0,96,0.00,,,0.00,Wunderground v.1.15,2013-04-13 02:55:00,
2013-04-12 23:05:00,31.1,29.8,29.56,South,178,0.0,1.0,95,0.00,,,0.00,Wunderground v.1.15,2013-04-13 03:05:00,
2013-04-12 23:10:00,31.0,29.7,29.56,South,178,0.0,0.0,95,0.00,,,0.00,Wunderground v.1.15,2013-04-13 03:10:00,
2013-04-12 23:15:00,31.0,29.7,29.56,South,178,0.0,0.0,95,0.00,,,0.00,Wunderground v.1.15,2013-04-13 03:15:00,
2013-04-12 23:20:00,31.0,29.7,29.56,South,178,0.0,0.0,95,0.00,,,0.00,Wunderground v.1.15,2013-04-13 03:20:00,
2013-04-12 23:30:00,31.1,29.8,29.56,South,178,0.0,0.0,95,0.00,,,0.00,Wunderground v.1.15,2013-04-13 03:30:00,
2013-04-12 23:40:00,31.1,29.8,29.56,South,178,0.0,0.0,95,0.00,,,0.00,Wunderground v.1.15,2013-04-13 03:40:00,
2013-04-12 23:45:00,31.1,29.8,29.57,South,178,0.0,0.0,95,0.00,,,0.00,Wunderground v.1.15,2013-04-13 03:45:00,
2013-04-12 23:50:00,31.0,29.7,29.57,South,178,0.0,0.0,95,0.00,,,0.00,Wunderground v.1.15,2013-04-13 03:50:00,